Time;durP1;ratioP1;P1;durP2;ratioP2;P2;SDS_P1;SDS_P2;PMS_P1;PMS_P2;Temp;Humidity;BMP_temperature;BMP_pressure;BME280_temperature;BME280_humidity;BME280_pressure;Samples;Min_cycle;Max_cycle;Signal;HPM_P1;HPM_P2
2022/09/11 00:01:26;;;;;;;1.00;0.90;;;;;;;14.73;100.00;96337.69;5039828;28;20236;-71
2022/09/11 00:03:53;;;;;;;2.58;0.80;;;;;;;14.68;100.00;96340.13;5039238;28;20312;-71
2022/09/11 00:06:20;;;;;;;1.15;0.90;;;;;;;14.76;100.00;96336.47;5040260;28;20205;-71
2022/09/11 00:08:48;;;;;;;1.92;1.00;;;;;;;14.75;100.00;96335.66;5039896;28;20231;-71
2022/09/11 00:11:17;;;;;;;1.25;0.80;;;;;;;14.70;100.00;96330.16;5039784;28;20278;-71
2022/09/11 00:13:45;;;;;;;1.85;1.20;;;;;;;14.75;100.00;96321.56;5039054;28;20205;-71
2022/09/11 00:16:21;;;;;;;1.63;1.02;;;;;;;14.64;100.00;96322.97;5039944;28;20208;-71
2022/09/11 00:18:49;;;;;;;1.20;1.10;;;;;;;14.73;100.00;96324.44;5040050;28;20235;-71
2022/09/11 00:21:17;;;;;;;2.05;0.80;;;;;;;14.75;100.00;96325.06;5039137;28;20205;-71
2022/09/11 00:23:44;;;;;;;1.05;0.88;;;;;;;14.60;100.00;96320.09;5039474;28;20205;-71
2022/09/11 00:26:10;;;;;;;3.63;0.95;;;;;;;14.65;100.00;96323.81;5039413;28;20209;-71
2022/09/11 00:28:38;;;;;;;2.13;0.82;;;;;;;14.61;100.00;96321.75;5039362;28;20227;-71
2022/09/11 00:31:07;;;;;;;3.25;0.98;;;;;;;14.59;100.00;96323.75;5039726;28;20204;-71
2022/09/11 00:33:36;;;;;;;3.83;1.10;;;;;;;14.69;100.00;96322.38;5038508;28;20224;-71
2022/09/11 00:36:04;;;;;;;1.33;1.10;;;;;;;14.62;100.00;96320.72;5039321;28;20629;-71
2022/09/11 00:38:34;;;;;;;1.10;0.80;;;;;;;14.68;100.00;96321.56;5039413;28;20784;-71
2022/09/11 00:41:03;;;;;;;3.65;1.20;;;;;;;14.70;100.00;96329.31;5039183;28;20209;-71
2022/09/11 00:43:49;;;;;;;1.98;1.02;;;;;;;14.65;100.00;96324.63;5038233;28;20288;-71
2022/09/11 00:46:16;;;;;;;2.53;1.10;;;;;;;14.61;100.00;96316.44;5037542;28;20727;-71
2022/09/11 00:48:48;;;;;;;3.65;1.50;;;;;;;14.68;100.00;96315.44;5038947;28;20229;-71
2022/09/11 00:51:18;;;;;;;2.35;0.80;;;;;;;14.57;100.00;96315.22;5037451;28;20217;-71
2022/09/11 00:53:45;;;;;;;2.45;0.90;;;;;;;14.50;100.00;96311.69;5038102;28;20235;-72
2022/09/11 00:56:12;;;;;;;3.30;0.98;;;;;;;14.62;100.00;96315.44;5038085;28;20243;-71
2022/09/11 00:58:43;;;;;;;1.48;1.00;;;;;;;14.62;100.00;96310.13;5038045;28;20221;-71
2022/09/11 01:01:09;;;;;;;2.40;1.20;;;;;;;14.64;100.00;96312.38;5037967;28;20219;-71
2022/09/11 01:03:36;;;;;;;2.17;1.13;;;;;;;14.60;100.00;96298.88;5037072;28;20205;-71
2022/09/11 01:06:05;;;;;;;3.20;1.05;;;;;;;14.71;100.00;96307.06;5037173;28;20773;-71
2022/09/11 01:08:32;;;;;;;2.00;1.40;;;;;;;14.64;100.00;96298.31;5036757;28;20804;-71
2022/09/11 01:11:12;;;;;;;1.50;0.98;;;;;;;14.68;100.00;96297.69;5037771;28;20220;-71
2022/09/11 01:13:47;;;;;;;2.50;1.10;;;;;;;14.59;100.00;96294.59;5036352;28;20197;-71
2022/09/11 01:16:24;;;;;;;1.65;1.10;;;;;;;14.61;100.00;96292.56;5036973;28;20208;-71
2022/09/11 01:18:57;;;;;;;1.50;1.00;;;;;;;14.65;100.00;96297.28;5037544;28;20227;-71
2022/09/11 01:21:51;;;;;;;2.15;1.33;;;;;;;14.60;100.00;96290.94;5037134;28;20212;-71
2022/09/11 01:24:38;;;;;;;1.73;1.63;;;;;;;14.55;100.00;96288.06;5036829;28;20201;-71
2022/09/11 01:27:38;;;;;;;1.90;1.10;;;;;;;14.65;100.00;96290.13;5037250;28;20264;-71
2022/09/11 01:30:08;;;;;;;2.22;0.90;;;;;;;14.59;100.00;96292.78;5037335;28;20205;-71
2022/09/11 01:32:43;;;;;;;1.17;0.98;;;;;;;14.63;100.00;96294.00;5036794;28;20205;-71
2022/09/11 01:35:16;;;;;;;4.82;1.20;;;;;;;14.63;100.00;96293.19;5037148;28;20205;-71
2022/09/11 01:37:49;;;;;;;3.60;1.40;;;;;;;14.57;100.00;96294.00;5036892;28;20221;-71
2022/09/11 01:40:21;;;;;;;10.27;1.40;;;;;;;14.47;100.00;96294.34;5036971;28;20232;-71
2022/09/11 01:42:53;;;;;;;2.97;1.17;;;;;;;14.55;100.00;96299.50;5037086;28;20886;-71
2022/09/11 01:45:22;;;;;;;3.75;1.17;;;;;;;14.57;100.00;96301.94;5037116;28;20201;-71
2022/09/11 01:47:52;;;;;;;1.27;0.97;;;;;;;14.44;100.00;96299.25;4999833;28;1055028;-71
2022/09/11 01:50:22;;;;;;;2.65;1.20;;;;;;;14.59;100.00;96297.25;5038100;28;20201;-71
2022/09/11 01:52:53;;;;;;;3.38;1.23;;;;;;;14.53;100.00;96288.25;5036706;28;20205;-71
2022/09/11 01:55:26;;;;;;;4.10;1.10;;;;;;;14.57;100.00;96294.78;5037866;28;20209;-71
2022/09/11 01:57:59;;;;;;;1.38;1.10;;;;;;;14.51;100.00;96294.78;5034744;28;20221;-71
2022/09/11 02:00:26;;;;;;;3.38;1.23;;;;;;;14.50;100.00;96290.47;5037557;28;20231;-71
2022/09/11 02:02:58;;;;;;;1.13;0.90;;;;;;;14.56;100.00;96292.34;5037029;28;20683;-71
2022/09/11 02:05:30;;;;;;;2.70;1.23;;;;;;;14.56;100.00;96290.53;5037944;28;20212;-71
2022/09/11 02:08:01;;;;;;;3.55;1.10;;;;;;;14.52;100.00;96293.78;5037654;28;20236;-71
2022/09/11 02:10:34;;;;;;;1.42;0.98;;;;;;;14.58;100.00;96290.31;5037545;28;20219;-71
2022/09/11 02:13:11;;;;;;;3.97;1.08;;;;;;;14.54;100.00;96294.41;5037592;28;20665;-71
2022/09/11 02:15:43;;;;;;;3.22;1.10;;;;;;;14.58;100.00;96287.69;5036834;28;20291;-71
2022/09/11 02:18:17;;;;;;;1.75;1.10;;;;;;;14.55;100.00;96285.41;5036837;28;20232;-71
2022/09/11 02:20:46;;;;;;;4.10;1.10;;;;;;;14.59;100.00;96282.16;5037099;28;20252;-71
2022/09/11 02:23:13;;;;;;;2.55;1.27;;;;;;;14.55;100.00;96285.41;5036376;28;20241;-71
2022/09/11 02:25:40;;;;;;;7.07;1.17;;;;;;;14.61;100.00;96279.31;5034509;28;20696;-71
2022/09/11 02:28:08;;;;;;;5.80;1.20;;;;;;;14.63;100.00;96280.75;5037514;28;20232;-71
2022/09/11 02:30:35;;;;;;;2.25;1.25;;;;;;;14.64;100.00;96280.53;5037034;28;20208;-71
2022/09/11 02:33:01;;;;;;;7.47;1.38;;;;;;;14.68;100.00;96281.78;5036357;28;20213;-71
2022/09/11 02:35:39;;;;;;;1.52;1.13;;;;;;;14.68;100.00;96289.72;5037617;28;20229;-71
2022/09/11 02:38:13;;;;;;;1.65;0.95;;;;;;;14.67;100.00;96280.13;5037373;28;20228;-71
2022/09/11 02:40:46;;;;;;;2.40;1.30;;;;;;;14.74;100.00;96283.63;5037018;28;20571;-71
2022/09/11 02:43:43;;;;;;;1.65;1.27;;;;;;;14.77;100.00;96285.06;5036670;28;20209;-71
2022/09/11 02:46:37;;;;;;;3.30;1.30;;;;;;;14.71;100.00;96297.31;5036646;28;20208;-71
2022/09/11 02:49:10;;;;;;;3.70;1.20;;;;;;;14.74;100.00;96294.25;5036449;28;21091;-71
2022/09/11 02:51:46;;;;;;;3.08;1.10;;;;;;;14.60;100.00;96298.88;5037257;28;20193;-71
2022/09/11 02:54:23;;;;;;;1.60;1.30;;;;;;;14.61;100.00;96295.22;5035624;28;21049;-71
2022/09/11 02:56:56;;;;;;;5.28;1.35;;;;;;;14.63;100.00;96294.81;5034766;28;21114;-71
2022/09/11 02:59:30;;;;;;;2.55;1.00;;;;;;;14.58;100.00;96295.63;5036445;28;20229;-71
2022/09/11 03:01:58;;;;;;;2.78;1.58;;;;;;;14.60;100.00;96289.13;5036972;28;20205;-71
2022/09/11 03:04:25;;;;;;;1.75;1.05;;;;;;;14.52;100.00;96296.41;5035382;28;20716;-71
2022/09/11 03:06:53;;;;;;;3.00;1.30;;;;;;;14.59;100.00;96298.09;5036417;28;20236;-71
2022/09/11 03:09:20;;;;;;;5.00;1.27;;;;;;;14.52;100.00;96291.13;5036395;28;20197;-71
2022/09/11 03:11:46;;;;;;;3.17;1.25;;;;;;;14.55;100.00;96296.00;5037439;28;20589;-71
2022/09/11 03:14:14;;;;;;;5.85;1.73;;;;;;;14.60;100.00;96302.38;5035369;28;20209;-71
2022/09/11 03:16:42;;;;;;;2.60;1.20;;;;;;;14.62;100.00;96302.97;5036625;28;20224;-71
2022/09/11 03:19:08;;;;;;;3.05;1.13;;;;;;;14.50;100.00;96293.13;5036551;28;20320;-71
2022/09/11 03:21:36;;;;;;;6.50;1.15;;;;;;;14.46;100.00;96307.81;5036818;28;20202;-71
2022/09/11 03:24:03;;;;;;;3.55;1.38;;;;;;;14.46;100.00;96307.81;5035747;28;20232;-71
2022/09/11 03:26:30;;;;;;;2.83;1.30;;;;;;;14.42;100.00;96303.94;5035759;28;20205;-71
2022/09/11 03:28:56;;;;;;;1.55;1.10;;;;;;;14.41;100.00;96299.63;5037989;28;20312;-71
2022/09/11 03:31:23;;;;;;;3.55;1.33;;;;;;;14.36;100.00;96300.25;5036288;28;20209;-71
2022/09/11 03:33:51;;;;;;;1.38;1.15;;;;;;;14.43;100.00;96303.72;5035360;28;20205;-71
2022/09/11 03:36:19;;;;;;;3.95;1.45;;;;;;;14.38;100.00;96300.84;5035514;28;20205;-71
2022/09/11 03:38:45;;;;;;;3.13;1.35;;;;;;;14.36;100.00;96297.59;5037102;28;20291;-71
2022/09/11 03:41:12;;;;;;;2.72;1.42;;;;;;;14.38;100.00;96300.84;5035677;28;20232;-71
2022/09/11 03:43:38;;;;;;;4.78;1.25;;;;;;;14.37;100.00;96299.25;5035415;28;20208;-71
2022/09/11 03:46:05;;;;;;;4.15;1.20;;;;;;;14.36;100.00;96294.13;5036256;28;20201;-71
2022/09/11 03:48:32;;;;;;;2.55;1.20;;;;;;;14.37;100.00;96290.44;5035864;28;20231;-71
2022/09/11 03:50:59;;;;;;;6.47;1.45;;;;;;;14.45;100.00;96291.09;5036309;28;20209;-71
2022/09/11 03:53:26;;;;;;;3.63;1.50;;;;;;;14.49;100.00;96294.97;5035965;28;20201;-71
2022/09/11 03:55:53;;;;;;;2.10;1.20;;;;;;;14.33;100.00;96291.88;5034300;28;20208;-71
2022/09/11 03:58:20;;;;;;;3.53;1.38;;;;;;;14.47;100.00;96290.91;5036072;28;20587;-71
2022/09/11 04:00:47;;;;;;;1.65;1.25;;;;;;;14.44;100.00;96288.66;5036129;28;20221;-71
2022/09/11 04:03:15;;;;;;;4.50;1.60;;;;;;;14.42;100.00;96280.91;5035328;28;20258;-71
2022/09/11 04:05:43;;;;;;;3.40;1.40;;;;;;;14.47;100.00;96294.34;5035874;28;20201;-71
2022/09/11 04:08:11;;;;;;;2.25;1.08;;;;;;;14.45;100.00;96285.00;5036491;28;20229;-71
2022/09/11 04:10:38;;;;;;;4.60;1.60;;;;;;;14.40;100.00;96295.38;5036216;28;20194;-71
2022/09/11 04:13:05;;;;;;;3.47;1.20;;;;;;;14.40;100.00;96287.41;5034854;28;20213;-71
2022/09/11 04:15:32;;;;;;;3.47;1.45;;;;;;;14.36;100.00;96288.84;5035461;28;20205;-71
2022/09/11 04:17:59;;;;;;;1.40;1.23;;;;;;;14.42;100.00;96295.97;5036254;28;20646;-71
2022/09/11 04:20:26;;;;;;;3.67;1.30;;;;;;;14.41;100.00;96295.16;5035412;28;20225;-71
2022/09/11 04:22:52;;;;;;;5.15;1.45;;;;;;;14.47;100.00;96294.34;5035414;28;20240;-71
2022/09/11 04:25:20;;;;;;;9.63;1.52;;;;;;;14.52;100.00;96289.28;5036136;28;20670;-71
2022/09/11 04:27:47;;;;;;;2.83;1.40;;;;;;;14.39;100.00;96299.03;5035780;28;20236;-71
2022/09/11 04:30:14;;;;;;;2.63;1.40;;;;;;;14.46;100.00;96310.47;5035575;28;20201;-71
2022/09/11 04:32:40;;;;;;;2.67;1.52;;;;;;;14.52;100.00;96307.03;5035840;28;20201;-71
2022/09/11 04:35:07;;;;;;;2.65;1.25;;;;;;;14.52;100.00;96307.84;5035974;28;20232;-71
2022/09/11 04:37:34;;;;;;;1.83;1.25;;;;;;;14.50;100.00;96309.03;5034891;28;20229;-71
2022/09/11 04:40:01;;;;;;;1.00;0.93;;;;;;;14.43;100.00;96309.03;5037230;28;20229;-71
2022/09/11 04:42:29;;;;;;;1.30;1.10;;;;;;;14.44;100.00;96313.31;5036460;28;20216;-71
2022/09/11 04:44:55;;;;;;;2.67;1.40;;;;;;;14.42;100.00;96310.06;5038885;28;20197;-71
2022/09/11 04:47:22;;;;;;;3.22;1.20;;;;;;;14.47;100.00;96301.50;5038821;28;21231;-71
2022/09/11 04:49:48;;;;;;;3.95;1.33;;;;;;;14.48;100.00;96305.78;5040012;28;20209;-71
2022/09/11 04:52:15;;;;;;;1.20;1.00;;;;;;;14.43;100.00;96302.91;5037952;28;20201;-71
2022/09/11 04:54:41;;;;;;;5.68;1.40;;;;;;;14.38;100.00;96308.81;5039197;28;21124;-71
2022/09/11 04:57:08;;;;;;;1.83;1.23;;;;;;;14.53;100.00;96314.78;5036864;28;20225;-71
2022/09/11 04:59:37;;;;;;;5.50;1.45;;;;;;;14.54;100.00;96320.91;5038726;28;21134;-71
2022/09/11 05:02:04;;;;;;;3.85;1.50;;;;;;;14.54;100.00;96329.69;5038508;28;20205;-71
2022/09/11 05:04:31;;;;;;;4.47;1.20;;;;;;;14.55;100.00;96327.84;5038319;28;20296;-71
2022/09/11 05:06:57;;;;;;;4.35;1.80;;;;;;;14.47;100.00;96325.38;5038918;28;20220;-71
2022/09/11 05:09:26;;;;;;;6.43;1.50;;;;;;;14.50;100.00;96335.56;5038874;28;20600;-71
2022/09/11 05:11:53;;;;;;;2.45;1.40;;;;;;;14.46;100.00;96329.03;5038392;28;20221;-71
2022/09/11 05:14:19;;;;;;;1.88;1.55;;;;;;;14.51;100.00;96331.91;5037911;28;20216;-71
2022/09/11 05:16:47;;;;;;;9.07;1.63;;;;;;;14.56;100.00;96329.47;5039047;28;20233;-71
2022/09/11 05:19:14;;;;;;;1.30;1.20;;;;;;;14.57;100.00;96334.56;5038629;28;20669;-71
2022/09/11 05:21:41;;;;;;;2.25;1.70;;;;;;;14.61;100.00;96343.75;5037471;28;20221;-71
2022/09/11 05:24:07;;;;;;;3.78;1.90;;;;;;;14.54;100.00;96342.13;5037701;28;20658;-71
2022/09/11 05:26:35;;;;;;;2.25;1.40;;;;;;;14.60;100.00;96341.31;5038301;28;21213;-70
2022/09/11 05:29:04;;;;;;;1.98;1.13;;;;;;;14.60;100.00;96338.66;5038273;28;20205;-71
2022/09/11 05:31:31;;;;;;;3.85;1.55;;;;;;;14.57;100.00;96347.03;5038540;28;20197;-71
2022/09/11 05:34:00;;;;;;;1.75;1.40;;;;;;;14.61;100.00;96354.38;5037431;28;20220;-69
2022/09/11 05:36:29;;;;;;;3.20;1.25;;;;;;;14.57;100.00;96355.00;5038293;28;20220;-69
2022/09/11 05:38:56;;;;;;;4.88;1.50;;;;;;;14.63;100.00;96351.56;5037988;28;20711;-70
2022/09/11 05:41:23;;;;;;;2.95;1.65;;;;;;;14.69;100.00;96357.69;5038211;28;20225;-71
2022/09/11 05:43:51;;;;;;;3.65;1.60;;;;;;;14.64;100.00;96356.66;5038189;28;20201;-70
2022/09/11 05:46:19;;;;;;;5.22;1.88;;;;;;;14.65;100.00;96361.75;5037629;28;20205;-70
2022/09/11 05:48:46;;;;;;;4.95;1.83;;;;;;;14.56;100.00;96359.50;5037838;28;20220;-70
2022/09/11 05:51:15;;;;;;;3.30;1.80;;;;;;;14.71;100.00;96366.28;5037997;28;20201;-71
2022/09/11 05:53:43;;;;;;;4.10;2.30;;;;;;;14.72;100.00;96370.53;5036153;28;20212;-71
2022/09/11 05:56:12;;;;;;;3.60;2.05;;;;;;;14.69;100.00;96378.09;5037708;28;20945;-73
2022/09/11 05:58:39;;;;;;;3.78;1.70;;;;;;;14.63;100.00;96383.38;5038722;28;20224;-72
2022/09/11 06:01:07;;;;;;;2.28;1.23;;;;;;;14.63;100.00;96385.00;5038711;28;20228;-71
2022/09/11 06:03:34;;;;;;;3.28;1.75;;;;;;;14.63;100.00;96384.19;5037359;28;20201;-70
2022/09/11 06:06:01;;;;;;;1.92;1.30;;;;;;;14.60;100.00;96381.09;5036483;28;20224;-71
2022/09/11 06:08:29;;;;;;;4.10;1.70;;;;;;;14.63;100.00;96389.50;5037913;28;20489;-71
2022/09/11 06:10:57;;;;;;;5.43;1.75;;;;;;;14.63;100.00;96393.97;5037374;28;20197;-70
2022/09/11 06:13:24;;;;;;;4.85;1.85;;;;;;;14.59;100.00;96398.84;5036928;28;20209;-71
2022/09/11 06:15:51;;;;;;;3.40;1.23;;;;;;;14.72;100.00;96394.41;5038418;28;20573;-71
2022/09/11 06:18:17;;;;;;;3.03;1.40;;;;;;;14.71;100.00;96405.22;5037117;28;20225;-70
2022/09/11 06:20:55;;;;;;;2.65;1.70;;;;;;;14.91;100.00;96403.47;5037236;28;20231;-71
2022/09/11 06:23:21;;;;;;;1.83;1.48;;;;;;;14.84;100.00;96407.91;5037125;28;20208;-71
2022/09/11 06:25:49;;;;;;;2.83;1.20;;;;;;;14.89;100.00;96411.63;5037321;28;20205;-71
2022/09/11 06:28:16;;;;;;;3.80;1.80;;;;;;;14.99;100.00;96422.66;5037177;28;20227;-70
2022/09/11 06:30:48;;;;;;;3.47;1.83;;;;;;;14.97;100.00;96414.09;5037627;28;20347;-72
2022/09/11 06:33:14;;;;;;;1.65;1.40;;;;;;;14.93;100.00;96412.88;5036423;28;20312;-70
2022/09/11 06:35:41;;;;;;;3.60;1.75;;;;;;;14.90;100.00;96418.56;5036875;28;20205;-70
2022/09/11 06:38:07;;;;;;;2.60;1.42;;;;;;;14.96;100.00;96420.44;5037142;28;21140;-69
2022/09/11 06:40:36;;;;;;;5.13;1.30;;;;;;;15.13;100.00;96424.34;5037066;28;20229;-69
2022/09/11 06:43:04;;;;;;;3.08;1.50;;;;;;;15.19;100.00;96420.91;5036581;28;20208;-71
2022/09/11 06:45:32;;;;;;;2.10;1.40;;;;;;;15.26;100.00;96419.09;5036530;28;20201;-71
2022/09/11 06:47:59;;;;;;;5.03;2.15;;;;;;;15.34;100.00;96414.44;5036412;28;20237;-71
2022/09/11 06:50:26;;;;;;;7.88;2.65;;;;;;;15.32;100.00;96419.13;5036930;28;20201;-71
2022/09/11 06:52:52;;;;;;;3.30;2.00;;;;;;;15.48;100.00;96417.94;5035732;28;21275;-71
2022/09/11 06:55:19;;;;;;;3.78;1.90;;;;;;;15.50;100.00;96419.38;5036881;28;20264;-72
2022/09/11 06:57:46;;;;;;;8.13;2.10;;;;;;;15.49;100.00;96420.38;5034387;28;20327;-70
2022/09/11 07:00:14;;;;;;;3.08;1.90;;;;;;;15.54;100.00;96425.06;5036776;28;20225;-71
2022/09/11 07:02:41;;;;;;;4.40;2.38;;;;;;;15.54;100.00;96423.25;5036187;28;20576;-71
2022/09/11 07:05:09;;;;;;;4.32;2.38;;;;;;;15.64;100.00;96425.50;5036881;28;20235;-70
2022/09/11 07:07:37;;;;;;;4.00;2.00;;;;;;;15.52;100.00;96424.47;5036932;28;20231;-71
2022/09/11 07:10:04;;;;;;;6.78;1.90;;;;;;;15.51;100.00;96422.84;5036747;28;20207;-71
2022/09/11 07:12:31;;;;;;;6.40;2.08;;;;;;;15.46;100.00;96419.97;5035039;28;20201;-70
2022/09/11 07:14:57;;;;;;;6.28;2.03;;;;;;;15.40;100.00;96423.41;5037009;28;20231;-69
2022/09/11 07:17:25;;;;;;;6.20;2.30;;;;;;;15.60;100.00;96421.63;5035805;28;20243;-71
2022/09/11 07:19:52;;;;;;;4.97;2.42;;;;;;;15.64;100.00;96423.66;5036433;28;20208;-70
2022/09/11 07:22:18;;;;;;;5.43;2.53;;;;;;;15.70;100.00;96427.34;5035437;28;20728;-71
2022/09/11 07:24:46;;;;;;;4.50;2.45;;;;;;;15.83;100.00;96425.50;5036681;28;20232;-71
2022/09/11 07:27:12;;;;;;;4.28;2.50;;;;;;;15.96;100.00;96436.97;5035439;28;20683;-71
2022/09/11 07:29:39;;;;;;;6.43;3.08;;;;;;;15.94;100.00;96439.00;5037326;28;20205;-73
2022/09/11 07:32:05;;;;;;;6.88;2.55;;;;;;;16.07;100.00;96441.63;5036510;28;20205;-72
2022/09/11 07:34:33;;;;;;;6.00;3.10;;;;;;;16.20;100.00;96438.16;5035352;28;20200;-73
2022/09/11 07:37:00;;;;;;;4.00;2.58;;;;;;;16.31;100.00;96442.91;5036902;28;20224;-73
2022/09/11 07:39:26;;;;;;;12.52;3.40;;;;;;;16.40;100.00;96442.47;5036757;28;20213;-73
2022/09/11 07:41:52;;;;;;;6.07;3.17;;;;;;;16.48;100.00;96454.72;5035867;28;20220;-73
2022/09/11 07:44:20;;;;;;;6.47;3.45;;;;;;;16.54;100.00;96449.38;5034843;28;20216;-73
2022/09/11 07:46:47;;;;;;;5.63;3.00;;;;;;;16.60;100.00;96449.38;5034234;28;20236;-72
2022/09/11 07:49:14;;;;;;;5.93;3.30;;;;;;;16.65;100.00;96452.22;5035310;28;20217;-73
2022/09/11 07:51:42;;;;;;;13.00;3.60;;;;;;;16.71;100.00;96445.25;5036211;28;20200;-72
2022/09/11 07:54:09;;;;;;;5.85;3.75;;;;;;;16.62;100.00;96451.81;5035401;28;20206;-73
2022/09/11 07:56:36;;;;;;;7.32;4.30;;;;;;;16.57;100.00;96459.59;5032642;28;20664;-73
2022/09/11 07:59:07;;;;;;;8.90;4.18;;;;;;;16.53;100.00;96471.69;5035265;28;20201;-73
2022/09/11 08:01:34;;;;;;;6.88;4.38;;;;;;;16.26;100.00;96471.94;5034916;28;20307;-73
2022/09/11 08:04:04;;;;;;;11.15;5.57;;;;;;;16.37;100.00;96472.13;5033986;28;20212;-73
2022/09/11 08:06:33;;;;;;;13.02;5.57;;;;;;;16.27;100.00;96470.94;5035194;28;20688;-72
2022/09/11 08:09:04;;;;;;;10.10;5.53;;;;;;;16.46;100.00;96470.06;5034713;28;20208;-73
2022/09/11 08:11:33;;;;;;;10.82;5.72;;;;;;;16.58;100.00;96478.00;5035393;28;20733;-72
2022/09/11 08:14:00;;;;;;;10.75;5.40;;;;;;;16.55;100.00;96474.97;5034696;28;20304;-73
2022/09/11 08:16:27;;;;;;;10.95;5.35;;;;;;;16.63;100.00;96480.88;5035444;28;20247;-72
2022/09/11 08:18:54;;;;;;;6.53;3.75;;;;;;;16.54;100.00;96478.66;5038835;28;21060;-73
2022/09/11 08:21:21;;;;;;;11.05;5.63;;;;;;;16.62;100.00;96475.75;5038431;28;20231;-73
2022/09/11 08:23:48;;;;;;;12.15;5.72;;;;;;;16.86;100.00;96483.06;5038584;28;20213;-73
2022/09/11 08:26:20;;;;;;;14.38;7.03;;;;;;;16.91;100.00;96480.63;5039237;28;20212;-74
2022/09/11 08:28:49;;;;;;;13.27;7.30;;;;;;;16.93;100.00;96487.34;5038805;28;20208;-72
2022/09/11 08:31:17;;;;;;;11.52;6.28;;;;;;;17.04;100.00;96489.34;5038781;28;20209;-70
2022/09/11 08:33:44;;;;;;;11.60;6.72;;;;;;;17.00;100.00;96498.78;5038713;28;20205;-71
2022/09/11 08:36:12;;;;;;;11.57;6.45;;;;;;;16.93;100.00;96494.50;5039618;28;20220;-71
2022/09/11 08:38:39;;;;;;;11.23;5.80;;;;;;;16.88;100.00;96496.97;5039562;28;20217;-71
2022/09/11 08:41:11;;;;;;;11.02;6.93;;;;;;;17.10;100.00;96501.84;5038143;28;20587;-71
2022/09/11 08:43:50;;;;;;;9.00;5.55;;;;;;;17.11;100.00;96501.63;5038575;28;20300;-71
2022/09/11 08:46:18;;;;;;;9.65;6.05;;;;;;;17.16;100.00;96506.31;5033448;28;20232;-72
2022/09/11 08:48:49;;;;;;;9.48;5.93;;;;;;;17.20;100.00;96507.53;5039045;28;20448;-71
2022/09/11 08:51:17;;;;;;;9.63;5.38;;;;;;;17.18;100.00;96513.09;5037419;28;20201;-71
2022/09/11 08:53:45;;;;;;;9.48;5.70;;;;;;;17.11;100.00;96514.13;5037716;28;20566;-71
2022/09/11 08:56:16;;;;;;;9.75;5.82;;;;;;;17.18;100.00;96513.09;5038118;28;20241;-70
2022/09/11 08:58:54;;;;;;;10.45;5.07;;;;;;;17.08;100.00;96516.38;5039028;28;20274;-71
2022/09/11 09:01:28;;;;;;;11.98;5.60;;;;;;;16.95;100.00;96527.06;5037440;28;20294;-72
2022/09/11 09:04:09;;;;;;;9.45;5.30;;;;;;;17.21;100.00;96519.84;5038053;28;20545;-71
2022/09/11 09:06:50;;;;;;;7.78;5.18;;;;;;;17.30;100.00;96516.75;5038371;28;20279;-71
2022/09/11 09:09:27;;;;;;;6.75;4.45;;;;;;;17.39;100.00;96517.34;5037632;28;21041;-71
2022/09/11 09:11:59;;;;;;;7.28;4.75;;;;;;;17.52;100.00;96517.25;5038363;28;20211;-71
2022/09/11 09:14:50;;;;;;;7.78;4.05;;;;;;;17.61;100.00;96522.13;5038015;28;20205;-70
2022/09/11 09:17:21;;;;;;;6.82;4.50;;;;;;;17.72;100.00;96526.78;5037129;28;20221;-71
2022/09/11 09:19:55;;;;;;;7.00;4.63;;;;;;;17.76;100.00;96523.47;5038856;28;20205;-71
2022/09/11 09:22:26;;;;;;;6.90;4.82;;;;;;;17.63;100.00;96535.22;5037481;28;20767;-70
2022/09/11 09:24:59;;;;;;;7.03;4.68;;;;;;;17.56;100.00;96532.59;5038833;28;20208;-71
2022/09/11 09:27:30;;;;;;;7.90;4.95;;;;;;;17.56;100.00;96537.94;5037951;28;20225;-71
2022/09/11 09:30:00;;;;;;;8.35;5.40;;;;;;;17.53;100.00;96529.56;5038948;28;20216;-71
2022/09/11 09:32:31;;;;;;;8.25;4.53;;;;;;;17.71;100.00;96535.00;5037210;28;20197;-71
2022/09/11 09:35:04;;;;;;;7.25;5.10;;;;;;;17.80;100.00;96529.19;5038415;28;20201;-71
2022/09/11 09:37:30;;;;;;;7.97;4.60;;;;;;;17.88;98.42;96527.09;5038006;28;20232;-72
2022/09/11 09:39:57;;;;;;;9.13;4.70;;;;;;;17.84;100.00;96523.22;5038243;28;20205;-71
2022/09/11 09:42:48;;;;;;;8.95;5.15;;;;;;;17.94;98.64;96528.09;5037452;28;20241;-72
2022/09/11 09:45:33;;;;;;;6.82;4.10;;;;;;;17.95;97.44;96532.41;5036124;28;20205;-71
2022/09/11 09:48:00;;;;;;;7.93;4.78;;;;;;;17.77;99.12;96529.63;5038131;28;20232;-72
2022/09/11 09:50:30;;;;;;;8.60;5.03;;;;;;;18.13;100.00;96530.63;5038703;28;20241;-71
2022/09/11 09:53:03;;;;;;;8.85;5.40;;;;;;;18.14;97.30;96534.09;5037827;28;20208;-73
2022/09/11 09:55:30;;;;;;;6.75;4.50;;;;;;;18.03;98.01;96530.25;5038808;28;20205;-72
2022/09/11 09:57:56;;;;;;;7.18;4.50;;;;;;;18.32;96.23;96534.19;5038409;28;20229;-71
2022/09/11 10:00:24;;;;;;;6.07;3.85;;;;;;;18.61;92.04;96540.50;5038942;28;20209;-72
2022/09/11 10:02:52;;;;;;;5.70;4.00;;;;;;;18.82;94.16;96536.63;5036926;28;20244;-71
2022/09/11 10:05:24;;;;;;;5.38;3.92;;;;;;;18.85;90.31;96534.34;5038367;28;20308;-72
2022/09/11 10:07:53;;;;;;;4.93;3.20;;;;;;;18.79;90.26;96531.72;5038878;28;20236;-72
2022/09/11 10:10:23;;;;;;;4.38;3.30;;;;;;;18.80;90.02;96539.53;5037922;28;20259;-72
2022/09/11 10:12:50;;;;;;;5.78;3.60;;;;;;;18.58;89.08;96540.97;5037165;28;20233;-72
2022/09/11 10:15:22;;;;;;;5.53;3.42;;;;;;;18.35;88.33;96540.75;5036348;28;21328;-72
2022/09/11 10:17:50;;;;;;;4.60;3.10;;;;;;;18.31;90.22;96540.56;5037605;28;20232;-71
2022/09/11 10:20:26;;;;;;;4.05;2.90;;;;;;;18.38;92.15;96539.50;5036844;28;20224;-72
2022/09/11 10:22:54;;;;;;;4.72;3.35;;;;;;;18.26;91.42;96537.75;5036253;28;20653;-71
2022/09/11 10:25:25;;;;;;;7.15;3.85;;;;;;;18.19;91.34;96531.63;5036985;28;20753;-70
2022/09/11 10:28:01;;;;;;;4.72;3.40;;;;;;;18.26;91.48;96540.41;5036909;28;20221;-72
2022/09/11 10:30:31;;;;;;;5.95;3.42;;;;;;;18.33;89.94;96537.47;5036086;28;20212;-71
2022/09/11 10:33:01;;;;;;;4.70;3.55;;;;;;;18.39;90.35;96535.78;5034233;28;20267;-72
2022/09/11 10:35:29;;;;;;;5.38;3.50;;;;;;;18.61;89.81;96529.84;5037016;28;20296;-70
2022/09/11 10:38:05;;;;;;;5.68;3.30;;;;;;;18.94;90.14;96541.03;5036917;28;20606;-72
2022/09/11 10:40:32;;;;;;;6.72;3.78;;;;;;;18.96;87.77;96537.09;5036060;28;20248;-72
2022/09/11 10:42:59;;;;;;;5.65;3.30;;;;;;;19.23;87.42;96532.31;5034920;28;20225;-71
2022/09/11 10:45:25;;;;;;;5.32;3.08;;;;;;;19.32;87.68;96525.63;5034386;28;20235;-71
2022/09/11 10:47:52;;;;;;;5.05;3.10;;;;;;;19.13;86.13;96526.66;5037159;28;20702;-71
2022/09/11 10:50:23;;;;;;;3.58;2.67;;;;;;;19.19;85.56;96533.78;5035990;28;20209;-71
2022/09/11 10:52:58;;;;;;;3.55;2.40;;;;;;;19.09;84.50;96528.13;5036037;28;20212;-70
2022/09/11 10:55:28;;;;;;;5.47;2.67;;;;;;;19.06;83.89;96539.28;5036088;28;20209;-72
2022/09/11 10:58:00;;;;;;;4.68;2.60;;;;;;;18.98;82.67;96536.88;5036914;28;20225;-71
2022/09/11 11:00:30;;;;;;;7.70;2.75;;;;;;;19.28;83.33;96532.44;5036249;28;20209;-72
2022/09/11 11:02:59;;;;;;;3.22;2.00;;;;;;;19.25;82.27;96535.59;5036364;28;20225;-73
2022/09/11 11:05:32;;;;;;;4.63;2.30;;;;;;;19.24;81.13;96536.63;5036143;28;20224;-73
2022/09/11 11:08:46;;;;;;;3.97;2.63;;;;;;;19.25;80.08;96527.56;5036846;28;20228;-73
2022/09/11 11:11:27;;;;;;;4.45;2.95;;;;;;;19.49;81.26;96526.63;5013073;28;20968;-73
2022/09/11 11:14:29;;;;;;;3.22;2.40;;;;;;;20.09;79.71;96519.25;5036111;28;20223;-72
2022/09/11 11:17:02;;;;;;;5.38;2.78;;;;;;;20.58;77.22;96522.38;5015675;28;20240;-72
2022/09/11 11:19:57;;;;;;;2.67;2.03;;;;;;;20.72;74.40;96520.28;5037562;28;20205;-72
2022/09/11 11:22:44;;;;;;;3.40;2.40;;;;;;;21.32;75.84;96509.88;5035034;28;20225;-71
2022/09/11 11:25:21;;;;;;;3.90;2.50;;;;;;;21.08;74.82;96502.94;5035513;28;20205;-71
2022/09/11 11:28:30;;;;;;;4.35;2.60;;;;;;;21.12;74.30;96501.41;5036602;28;21300;-72
2022/09/11 11:31:05;;;;;;;3.42;2.38;;;;;;;21.36;76.30;96512.88;5008919;28;20753;-69
2022/09/11 11:33:44;;;;;;;4.47;2.55;;;;;;;20.97;71.23;96517.13;5035768;28;20209;-70
2022/09/11 11:36:18;;;;;;;2.45;2.13;;;;;;;20.45;70.09;96516.41;5036286;28;20208;-71
2022/09/11 11:38:51;;;;;;;2.65;2.40;;;;;;;20.49;73.82;96515.72;5036058;28;21070;-70
2022/09/11 11:41:23;;;;;;;3.95;2.40;;;;;;;20.79;76.39;96521.81;5035753;28;20296;-71